createdAt,value
2019-05-16T00:03:18.556Z,40.73
2019-05-16T00:08:21.667Z,40.23
2019-05-16T00:13:25.209Z,40.33
2019-05-16T00:18:28.787Z,39.70
2019-05-16T00:23:32.355Z,39.83
2019-05-16T00:28:38.029Z,40.23
2019-05-16T00:33:41.147Z,40.17
2019-05-16T00:38:44.714Z,40.27
2019-05-16T00:43:48.694Z,40.13
2019-05-16T00:48:52.371Z,39.73
2019-05-16T00:53:56.063Z,39.47
2019-05-16T00:59:00.466Z,39.33
2019-05-16T01:04:04.271Z,39.77
2019-05-16T01:09:08.763Z,40.07
2019-05-16T01:14:12.463Z,39.20
2019-05-16T01:19:16.050Z,39.53
2019-05-16T01:24:19.646Z,39.90
2019-05-16T01:29:23.227Z,39.80
2019-05-16T01:34:28.447Z,39.80
2019-05-16T01:39:32.587Z,39.73
2019-05-16T01:44:38.136Z,40.17
2019-05-16T01:49:41.470Z,40.00
2019-05-16T01:54:45.076Z,39.73
2019-05-16T01:59:48.698Z,39.63
2019-05-16T02:04:52.235Z,39.50
2019-05-16T02:09:58.091Z,39.50
2019-05-16T02:15:01.083Z,39.60
2019-05-16T02:20:08.780Z,40.33
2019-05-16T02:25:12.142Z,40.40
2019-05-16T02:30:16.151Z,39.80
2019-05-16T02:35:21.014Z,39.57
2019-05-16T02:40:25.241Z,39.47
2019-05-16T02:45:32.168Z,40.07
2019-05-16T02:50:35.049Z,40.05
2019-05-16T02:55:40.964Z,40.43
2019-05-16T03:00:44.146Z,40.08
2019-05-16T03:05:50.579Z,40.50
2019-05-16T03:10:54.315Z,40.36
2019-05-16T03:16:00.703Z,39.73
2019-05-16T03:21:06.091Z,39.87
2019-05-16T03:26:11.775Z,39.83
2019-05-16T03:31:15.928Z,39.92
2019-05-16T03:36:25.062Z,39.93
2019-05-16T03:41:25.206Z,40.43
2019-05-16T03:46:30.942Z,42.70
2019-05-16T03:51:33.998Z,40.73
2019-05-16T03:56:40.552Z,89.53
2019-05-16T04:01:42.832Z,45.83
2019-05-16T04:06:46.427Z,43.30
2019-05-16T04:11:50.933Z,40.57
2019-05-16T04:16:54.658Z,40.53
2019-05-16T04:22:01.193Z,39.87
2019-05-16T04:27:03.656Z,40.90
2019-05-16T04:32:10.919Z,40.53
2019-05-16T04:37:12.567Z,40.67
2019-05-16T04:42:16.212Z,41.40
2019-05-16T04:47:21.055Z,41.33
2019-05-16T04:52:24.803Z,41.05
2019-05-16T04:57:31.169Z,40.87
2019-05-16T05:02:33.739Z,41.97
2019-05-16T05:07:40.456Z,45.63
2019-05-16T05:12:42.566Z,43.63
2019-05-16T05:17:46.159Z,41.40
2019-05-16T05:22:50.057Z,41.53
2019-05-16T05:27:53.818Z,40.63
2019-05-16T05:32:57.377Z,41.03
2019-05-16T05:38:01.009Z,41.57
2019-05-16T05:43:04.588Z,41.30
2019-05-16T05:48:10.546Z,42.30
2019-05-16T05:53:13.563Z,41.13
2019-05-16T05:58:17.233Z,42.60
2019-05-16T06:03:22.429Z,41.40
2019-05-16T06:08:26.233Z,61.33
2019-05-16T06:13:31.130Z,41.63
2019-05-16T06:18:35.034Z,42.07
2019-05-16T06:23:40.269Z,44.53
2019-05-16T06:28:43.890Z,42.00
2019-05-16T06:33:50.032Z,54.50
2019-05-16T06:38:52.730Z,43.53
2019-05-16T06:43:56.330Z,41.37
2019-05-16T06:49:00.799Z,53.80
2019-05-16T06:54:04.526Z,42.40
2019-05-16T06:59:10.173Z,43.00
2019-05-16T07:04:13.410Z,44.97
2019-05-16T07:09:17.050Z,42.83
2019-05-16T07:14:22.796Z,42.90
2019-05-16T07:19:26.217Z,47.57
2019-05-16T07:24:30.536Z,43.10
2019-05-16T07:29:34.326Z,42.50
2019-05-16T07:34:40.215Z,43.03
2019-05-16T07:39:43.158Z,43.53
2019-05-16T07:44:46.732Z,43.33
2019-05-16T07:49:50.390Z,44.33
2019-05-16T07:54:54.019Z,46.20
2019-05-16T08:00:00.030Z,46.27
2019-05-16T08:05:03.109Z,47.93
2019-05-16T08:10:10.609Z,55.40
2019-05-16T08:15:15.002Z,45.90
2019-05-16T08:20:21.325Z,45.58
2019-05-16T08:25:24.533Z,45.85
2019-05-16T08:30:31.206Z,45.83
2019-05-16T08:35:33.682Z,46.33
2019-05-16T08:41:01.026Z,46.15
2019-05-16T08:45:42.886Z,48.37
2019-05-16T08:50:51.404Z,46.88
2019-05-16T08:55:51.789Z,46.07
2019-05-16T09:00:55.771Z,46.28
2019-05-16T09:06:02.841Z,54.50
2019-05-16T09:11:27.068Z,46.23
2019-05-16T09:16:10.408Z,46.33
2019-05-16T09:21:14.099Z,45.75
2019-05-16T09:26:19.847Z,46.37
2019-05-16T09:31:23.019Z,46.47
2019-05-16T09:36:28.009Z,45.83
2019-05-16T09:41:46.254Z,46.30
2019-05-16T09:46:37.724Z,47.73
2019-05-16T09:51:41.424Z,50.63
2019-05-16T09:56:46.415Z,48.67
2019-05-16T10:01:50.283Z,46.57
2019-05-16T10:06:54.238Z,46.90
2019-05-16T10:12:08.096Z,46.80
2019-05-16T10:17:03.659Z,46.73
2019-05-16T10:22:07.528Z,46.73
2019-05-16T10:27:11.354Z,47.27
2019-05-16T10:32:16.751Z,47.50
2019-05-16T10:37:20.429Z,47.60
2019-05-16T10:42:28.788Z,46.87
2019-05-16T10:47:31.394Z,47.23
2019-05-16T10:52:36.715Z,47.27
2019-05-16T10:57:40.075Z,47.27
2019-05-16T11:02:43.931Z,47.20
2019-05-16T11:07:49.375Z,47.43
2019-05-16T11:12:55.658Z,47.50
2019-05-16T11:18:00.018Z,48.07
2019-05-16T11:23:03.530Z,47.83
2019-05-16T11:28:07.483Z,47.55
2019-05-16T11:33:11.162Z,47.93
2019-05-16T11:38:17.526Z,47.60
2019-05-16T11:43:21.901Z,47.53
2019-05-16T11:48:29.025Z,48.10
2019-05-16T11:53:30.716Z,48.13
2019-05-16T11:58:34.289Z,48.43
2019-05-16T12:03:37.948Z,49.50
2019-05-16T12:08:41.649Z,47.33
2019-05-16T12:13:47.837Z,47.58
2019-05-16T12:18:50.722Z,47.73
2019-05-16T12:23:54.294Z,48.03
2019-05-16T12:28:57.954Z,47.93
2019-05-16T12:34:01.581Z,50.45
2019-05-16T12:39:07.946Z,48.70
2019-05-16T12:44:11.570Z,48.17
2019-05-16T12:49:17.362Z,48.02
2019-05-16T12:54:20.544Z,48.60
2019-05-16T12:59:26.654Z,48.93
2019-05-16T13:04:29.470Z,48.13
2019-05-16T13:09:33.066Z,49.07
2019-05-16T13:14:40.126Z,47.33
2019-05-16T13:19:44.157Z,47.33
2019-05-16T13:24:47.864Z,47.77
2019-05-16T13:29:51.919Z,47.97
2019-05-16T13:34:58.706Z,47.60
2019-05-16T13:40:00.685Z,48.37
2019-05-16T13:45:06.982Z,48.60
2019-05-16T13:50:12.617Z,47.40
2019-05-16T13:55:16.885Z,48.60
2019-05-16T14:00:21.355Z,48.42
2019-05-16T14:05:26.755Z,48.25
2019-05-16T14:10:30.742Z,47.70
2019-05-16T14:15:36.512Z,47.33
2019-05-16T14:20:39.582Z,47.63
2019-05-16T14:25:43.427Z,47.13
2019-05-16T14:30:47.955Z,48.15
2019-05-16T14:35:51.561Z,47.65
2019-05-16T14:40:57.289Z,48.30
2019-05-16T14:46:00.426Z,49.30
2019-05-16T14:51:04.156Z,48.47
2019-05-16T14:56:07.858Z,49.05
2019-05-16T15:01:11.467Z,48.58
2019-05-16T15:06:17.969Z,48.60
2019-05-16T15:11:20.396Z,49.57
2019-05-16T15:16:24.040Z,49.40
2019-05-16T15:21:27.731Z,48.70
2019-05-16T15:26:31.467Z,49.23
2019-05-16T15:31:36.297Z,48.50
2019-05-16T15:36:40.326Z,48.78
2019-05-16T15:41:44.009Z,48.48
2019-05-16T15:46:48.123Z,49.23
2019-05-16T15:51:52.271Z,48.54
2019-05-16T15:56:55.931Z,48.43
2019-05-16T16:01:59.580Z,49.60
2019-05-16T16:07:03.266Z,48.40
2019-05-16T16:12:08.194Z,48.00
2019-05-16T16:17:12.791Z,48.25
2019-05-16T16:22:17.734Z,48.67
2019-05-16T16:27:21.651Z,47.98
2019-05-16T16:32:26.875Z,49.60
2019-05-16T16:37:30.550Z,49.77
2019-05-16T16:42:37.123Z,48.68
2019-05-16T16:47:39.590Z,49.03
2019-05-16T16:52:43.210Z,49.03
2019-05-16T16:57:47.358Z,49.13
2019-05-16T17:03:02.011Z,48.47
2019-05-16T17:07:57.160Z,49.07
2019-05-16T17:13:00.803Z,49.00
2019-05-16T17:18:06.924Z,48.70
2019-05-16T17:23:10.207Z,48.80
2019-05-16T17:28:13.855Z,48.87
2019-05-16T17:33:18.452Z,49.20
2019-05-16T17:38:22.325Z,53.73
2019-05-16T17:43:27.002Z,51.37
2019-05-16T17:48:30.854Z,48.20
2019-05-16T17:53:34.530Z,48.70
2019-05-16T17:58:38.102Z,50.63
2019-05-16T18:03:41.742Z,50.26
2019-05-16T18:08:46.813Z,53.47
2019-05-16T18:13:50.646Z,52.07
2019-05-16T18:18:54.362Z,50.73
2019-05-16T18:23:58.004Z,49.10
2019-05-16T18:29:01.594Z,48.90
2019-05-16T18:34:07.369Z,48.53
2019-05-16T18:39:10.771Z,50.23
2019-05-16T18:44:16.543Z,50.57
2019-05-16T18:49:19.788Z,50.83
2019-05-16T18:54:23.371Z,50.00
2019-05-16T18:59:27.061Z,52.97
2019-05-16T19:04:30.670Z,54.27
2019-05-16T19:09:34.396Z,49.00
2019-05-16T19:14:37.994Z,50.07
2019-05-16T19:19:41.577Z,50.10
2019-05-16T19:24:46.484Z,49.80
2019-05-16T19:29:50.348Z,49.93
2019-05-16T19:34:54.041Z,51.40
2019-05-16T19:39:59.117Z,49.93
2019-05-16T19:45:03.409Z,51.00
2019-05-16T19:50:08.238Z,55.03
2019-05-16T19:55:12.183Z,53.83
2019-05-16T20:00:17.178Z,54.10
2019-05-16T20:05:21.120Z,52.53
2019-05-16T20:10:26.973Z,52.53
2019-05-16T20:15:30.323Z,55.00
2019-05-16T20:20:36.896Z,55.20
2019-05-16T20:25:39.780Z,75.07
2019-05-16T20:30:44.090Z,70.78
2019-05-16T20:35:47.736Z,65.07
2019-05-16T20:40:51.467Z,52.48
2019-05-16T20:45:56.795Z,51.20
2019-05-16T20:51:00.482Z,53.53
2019-05-16T20:56:06.415Z,54.83
2019-05-16T21:01:09.689Z,58.17
2019-05-16T21:06:13.327Z,54.50
2019-05-16T21:11:17.243Z,54.80
2019-05-16T21:16:20.923Z,56.77
2019-05-16T21:21:27.246Z,55.27
2019-05-16T21:26:30.083Z,66.17
2019-05-16T21:31:33.636Z,58.60
2019-05-16T21:36:37.250Z,68.70
2019-05-16T21:41:40.881Z,64.07
2019-05-16T21:46:46.812Z,56.23
2019-05-16T21:51:49.772Z,62.70
2019-05-16T21:56:53.515Z,86.70
2019-05-16T22:01:57.501Z,81.10
2019-05-16T22:07:01.202Z,73.90
2019-05-16T22:12:06.713Z,62.23
2019-05-16T22:17:10.178Z,65.53
2019-05-16T22:22:16.422Z,66.47
2019-05-16T22:27:19.308Z,66.40
2019-05-16T22:32:22.942Z,70.40
2019-05-16T22:37:26.651Z,66.00
2019-05-16T22:42:30.286Z,64.33
2019-05-16T22:47:33.942Z,62.63
2019-05-16T22:52:37.873Z,61.23
2019-05-16T22:57:41.511Z,58.27
2019-05-16T23:02:45.154Z,59.90
2019-05-16T23:08:02.108Z,61.77
2019-05-16T23:12:54.090Z,62.00
2019-05-16T23:17:57.660Z,61.27
2019-05-16T23:23:01.248Z,62.40
2019-05-16T23:28:07.360Z,62.63
2019-05-16T23:33:10.361Z,61.23
2019-05-16T23:38:19.509Z,56.97
2019-05-16T23:43:19.205Z,52.87
2019-05-16T23:48:22.791Z,53.70
2019-05-16T23:53:26.495Z,57.93
2019-05-16T23:58:30.143Z,57.57
